Time;durP1;ratioP1;P1;durP2;ratioP2;P2;SDS_P1;SDS_P2;PMS_P1;PMS_P2;Temp;Humidity;BMP_temperature;BMP_pressure;BME280_temperature;BME280_humidity;BME280_pressure;Samples;Min_cycle;Max_cycle;Signal;HPM_P1;HPM_P2
2022/10/06 00:01:03;;;;;;;32.80;11.75;;;10.40;99.90;;;;;;5013971;28;20488;-74
2022/10/06 00:03:30;;;;;;;30.23;12.77;;;10.40;99.90;;;;;;5034100;28;20041;-74
2022/10/06 00:06:01;;;;;;;33.50;15.68;;;10.30;99.90;;;;;;5033098;28;20053;-74
2022/10/06 00:08:31;;;;;;;29.77;14.73;;;10.40;99.90;;;;;;5032509;28;20504;-74
2022/10/06 00:11:00;;;;;;;29.80;14.07;;;10.40;99.90;;;;;;5046224;28;20049;-74
2022/10/06 00:13:27;;;;;;;27.95;12.25;;;10.40;99.90;;;;;;5032335;28;20073;-74
2022/10/06 00:15:55;;;;;;;26.73;13.70;;;10.50;99.90;;;;;;5015428;28;20072;-74
2022/10/06 00:18:23;;;;;;;24.10;11.77;;;10.50;99.90;;;;;;5047449;28;20147;-73
2022/10/06 00:20:58;;;;;;;25.75;12.32;;;10.40;99.90;;;;;;5032928;28;20114;-74
2022/10/06 00:23:27;;;;;;;20.63;10.88;;;10.50;99.90;;;;;;5033038;28;20481;-74
2022/10/06 00:25:55;;;;;;;19.17;11.43;;;10.50;99.90;;;;;;5031704;28;20060;-73
2022/10/06 00:28:24;;;;;;;20.48;10.10;;;10.50;99.90;;;;;;5013960;28;20057;-74
2022/10/06 00:30:52;;;;;;;22.38;9.85;;;10.50;99.90;;;;;;5032707;28;20481;-74
2022/10/06 00:33:20;;;;;;;16.50;8.90;;;10.50;99.90;;;;;;5032956;28;20081;-73
2022/10/06 00:35:57;;;;;;;15.65;8.80;;;10.50;99.90;;;;;;5031394;28;20042;-73
2022/10/06 00:38:25;;;;;;;14.93;9.48;;;10.50;99.90;;;;;;5031727;28;20077;-74
2022/10/06 00:40:52;;;;;;;12.85;9.32;;;10.50;99.90;;;;;;5031745;28;20417;-73
2022/10/06 00:43:47;;;;;;;17.45;9.15;;;10.50;99.90;;;;;;5031011;28;20052;-74
2022/10/06 00:46:23;;;;;;;13.30;8.80;;;10.50;99.90;;;;;;5031469;28;20548;-74
2022/10/06 00:48:56;;;;;;;13.55;7.53;;;10.50;99.90;;;;;;5014660;28;20080;-74
2022/10/06 00:51:23;;;;;;;;;;;10.60;99.90;;;;;;5033503;28;20149;-74
2022/10/06 00:53:51;;;;;;;13.07;8.20;;;10.60;99.90;;;;;;5030939;28;20027;-74
2022/10/06 00:56:18;;;;;;;13.23;9.20;;;10.50;99.90;;;;;;5031041;28;20088;-74
2022/10/06 00:58:49;;;;;;;14.75;8.48;;;10.50;99.90;;;;;;5030942;28;20053;-74
2022/10/06 01:01:17;;;;;;;11.73;7.82;;;10.50;99.90;;;;;;5047588;28;20080;-72
2022/10/06 01:03:49;;;;;;;10.20;7.70;;;10.50;99.90;;;;;;5030535;28;20041;-74
2022/10/06 01:06:17;;;;;;;9.45;6.07;;;10.50;99.90;;;;;;5045713;28;20498;-73
2022/10/06 01:08:44;;;;;;;10.55;6.88;;;10.50;99.90;;;;;;5014586;28;20456;-73
2022/10/06 01:11:13;;;;;;;10.70;6.93;;;10.50;99.90;;;;;;5032524;28;20065;-73
2022/10/06 01:13:42;;;;;;;8.70;6.40;;;10.50;99.90;;;;;;5030744;28;20053;-73
2022/10/06 01:16:18;;;;;;;8.43;5.95;;;10.60;99.90;;;;;;5032671;28;20547;-73
2022/10/06 01:18:48;;;;;;;9.68;6.80;;;10.60;99.90;;;;;;5031022;28;20592;-73
2022/10/06 01:21:23;;;;;;;7.57;6.40;;;10.60;99.90;;;;;;5047320;28;20053;-73
2022/10/06 01:23:53;;;;;;;9.02;6.28;;;10.60;99.90;;;;;;5031096;28;20084;-78
2022/10/06 01:26:23;;;;;;;5.35;4.85;;;10.60;99.90;;;;;;5030726;28;20061;-78
2022/10/06 01:28:51;;;;;;;5.13;4.60;;;10.60;99.90;;;;;;5031761;28;20107;-78
2022/10/06 01:31:20;;;;;;;5.18;4.68;;;10.60;99.90;;;;;;5028346;28;20081;-78
2022/10/06 01:33:52;;;;;;;5.65;4.68;;;10.60;99.90;;;;;;5027780;28;20516;-78
2022/10/06 01:36:19;;;;;;;5.13;4.25;;;10.60;99.90;;;;;;5011805;28;20107;-78
2022/10/06 01:38:47;;;;;;;5.13;4.63;;;10.60;99.90;;;;;;5009816;28;20048;-77
2022/10/06 01:41:15;;;;;;;4.78;3.92;;;10.60;99.90;;;;;;5036449;28;20050;-77
2022/10/06 01:43:43;;;;;;;5.00;3.72;;;10.60;99.90;;;;;;5027884;28;20049;-77
2022/10/06 01:46:11;;;;;;;5.65;3.70;;;10.60;99.90;;;;;;5029137;28;20053;-78
2022/10/06 01:48:41;;;;;;;4.10;3.15;;;10.60;99.90;;;;;;5021924;28;20529;-78
2022/10/06 01:51:14;;;;;;;3.97;3.33;;;10.60;99.90;;;;;;5041957;28;20048;-77
2022/10/06 01:53:42;;;;;;;;;;;10.70;99.90;;;;;;5029616;28;20505;-78
2022/10/06 01:56:09;;;;;;;3.75;3.45;;;10.70;99.90;;;;;;5013253;28;19932;-77
2022/10/06 01:58:38;;;;;;;4.20;3.47;;;10.70;99.90;;;;;;5012352;28;20051;-77
2022/10/06 02:01:08;;;;;;;3.92;2.75;;;10.80;99.90;;;;;;5028292;28;20084;-77
2022/10/06 02:03:38;;;;;;;3.65;3.33;;;10.80;99.90;;;;;;5011801;28;20071;-77
2022/10/06 02:06:07;;;;;;;4.07;3.17;;;10.80;99.90;;;;;;5027903;28;20056;-77
2022/10/06 02:08:35;;;;;;;3.25;2.67;;;10.90;99.90;;;;;;5043873;28;20362;-77
2022/10/06 02:11:07;;;;;;;3.92;3.30;;;10.90;99.90;;;;;;5013541;28;20056;-78
2022/10/06 02:13:37;;;;;;;4.47;3.45;;;10.90;99.90;;;;;;5046907;28;20103;-77
2022/10/06 02:16:06;;;;;;;3.42;3.15;;;11.00;99.90;;;;;;5013547;28;20049;-78
2022/10/06 02:18:35;;;;;;;2.97;2.78;;;11.00;99.90;;;;;;5028579;28;20505;-77
2022/10/06 02:21:04;;;;;;;3.00;2.70;;;11.00;99.90;;;;;;5029844;28;20057;-77
2022/10/06 02:23:33;;;;;;;3.35;3.05;;;11.00;99.90;;;;;;5029732;28;20045;-77
2022/10/06 02:26:01;;;;;;;3.45;3.15;;;11.00;99.90;;;;;;5028217;28;20438;-77
2022/10/06 02:28:30;;;;;;;4.10;3.33;;;11.10;99.90;;;;;;5029805;28;20049;-77
2022/10/06 02:31:02;;;;;;;6.07;2.90;;;11.10;99.90;;;;;;5029912;28;20060;-77
2022/10/06 02:33:29;;;;;;;6.70;4.20;;;11.10;99.90;;;;;;5029709;28;20064;-78
2022/10/06 02:35:57;;;;;;;3.50;3.20;;;11.10;99.90;;;;;;5029076;28;20480;-78
2022/10/06 02:38:27;;;;;;;3.30;3.00;;;11.20;99.90;;;;;;5029302;28;20041;-79
2022/10/06 02:40:55;;;;;;;3.60;3.17;;;11.20;99.90;;;;;;5029590;28;20501;-78
2022/10/06 02:43:23;;;;;;;3.60;3.15;;;11.20;99.90;;;;;;5027453;28;20053;-78
2022/10/06 02:45:54;;;;;;;3.40;3.15;;;11.10;99.90;;;;;;5030428;28;20101;-78
2022/10/06 02:48:24;;;;;;;3.40;3.10;;;11.10;99.90;;;;;;5029378;28;20053;-78
2022/10/06 02:50:59;;;;;;;4.28;3.30;;;11.10;99.90;;;;;;5030894;28;20088;-78
2022/10/06 02:53:27;;;;;;;3.33;3.03;;;11.10;99.90;;;;;;5028843;28;20097;-78
2022/10/06 02:55:59;;;;;;;3.97;2.75;;;11.10;99.90;;;;;;5030778;28;20140;-78
2022/10/06 02:58:28;;;;;;;2.97;2.67;;;11.10;99.90;;;;;;5029162;28;20045;-79
2022/10/06 03:01:02;;;;;;;3.28;2.90;;;11.20;99.90;;;;;;5046070;28;20144;-79
2022/10/06 03:03:33;;;;;;;4.20;2.90;;;11.20;99.90;;;;;;5028287;28;20042;-79
2022/10/06 03:06:02;;;;;;;4.97;3.28;;;11.20;99.90;;;;;;5030966;28;20064;-78
2022/10/06 03:08:32;;;;;;;24.30;17.25;;;11.20;99.90;;;;;;5012858;28;20148;-78
2022/10/06 03:11:03;;;;;;;18.63;12.82;;;11.20;99.90;;;;;;5027777;28;20058;-78
2022/10/06 03:13:31;;;;;;;4.97;3.60;;;11.20;99.90;;;;;;5028453;28;20049;-78
2022/10/06 03:15:59;;;;;;;4.40;3.97;;;11.30;99.90;;;;;;5012894;28;20076;-78
2022/10/06 03:18:26;;;;;;;6.72;4.60;;;11.30;99.90;;;;;;5010213;28;20145;-78
2022/10/06 03:21:01;;;;;;;7.63;4.75;;;11.30;99.90;;;;;;5023218;28;20121;-78
2022/10/06 03:23:28;;;;;;;8.20;5.20;;;11.40;99.90;;;;;;5029355;28;20056;-78
2022/10/06 03:25:57;;;;;;;9.25;4.95;;;11.40;99.90;;;;;;5029279;28;20049;-78
2022/10/06 03:28:24;;;;;;;6.03;5.15;;;11.40;99.90;;;;;;5045968;28;20467;-78
2022/10/06 03:30:53;;;;;;;8.90;4.95;;;11.40;99.90;;;;;;5011183;28;20049;-78
2022/10/06 03:33:21;;;;;;;7.72;5.18;;;11.40;99.90;;;;;;5024341;28;20428;-77
2022/10/06 03:35:59;;;;;;;7.55;5.60;;;11.50;99.90;;;;;;5034558;28;20490;-78
2022/10/06 03:38:27;;;;;;;7.95;4.82;;;11.50;99.90;;;;;;5015274;28;20544;-78
2022/10/06 03:41:03;;;;;;;7.45;5.18;;;11.50;99.90;;;;;;5030104;28;20536;-78
2022/10/06 03:43:31;;;;;;;11.35;6.38;;;11.60;99.90;;;;;;5029182;28;20049;-78
2022/10/06 03:46:00;;;;;;;9.40;5.53;;;11.60;99.90;;;;;;5045677;28;20053;-78
2022/10/06 03:48:30;;;;;;;8.02;6.20;;;11.60;99.90;;;;;;5028146;28;20073;-78
2022/10/06 03:51:01;;;;;;;11.27;5.57;;;11.60;99.90;;;;;;5029063;28;20099;-77
2022/10/06 03:53:29;;;;;;;12.25;6.10;;;11.70;99.90;;;;;;5030444;28;20107;-77
2022/10/06 03:56:03;;;;;;;11.55;5.95;;;11.70;99.90;;;;;;5045663;28;20390;-77
2022/10/06 03:58:34;;;;;;;12.32;5.93;;;11.70;99.90;;;;;;5011780;28;20046;-78
2022/10/06 04:01:04;;;;;;;15.82;6.72;;;11.70;99.90;;;;;;5029089;28;20467;-77
2022/10/06 04:03:32;;;;;;;13.70;6.75;;;11.70;99.90;;;;;;5029194;28;20046;-78
2022/10/06 04:06:03;;;;;;;12.88;6.72;;;11.70;99.90;;;;;;5019765;28;20509;-78
2022/10/06 04:08:34;;;;;;;17.55;7.15;;;11.80;99.90;;;;;;5031449;28;20057;-77
2022/10/06 04:11:06;;;;;;;10.25;6.18;;;11.80;99.90;;;;;;5048849;28;20425;-78
2022/10/06 04:13:37;;;;;;;19.88;7.43;;;11.80;99.90;;;;;;5033715;28;20437;-77
2022/10/06 04:16:14;;;;;;;15.60;6.80;;;11.80;99.90;;;;;;5031320;28;20132;-77
2022/10/06 04:18:45;;;;;;;12.43;7.07;;;11.80;99.90;;;;;;5025265;28;20058;-76
2022/10/06 04:21:17;;;;;;;15.82;7.35;;;11.90;99.90;;;;;;5027903;28;20053;-76
2022/10/06 04:23:44;;;;;;;17.63;8.00;;;11.90;99.90;;;;;;5026924;28;20045;-75
2022/10/06 04:26:14;;;;;;;13.68;7.68;;;11.90;99.90;;;;;;5014104;28;20049;-75
2022/10/06 04:28:46;;;;;;;17.35;8.13;;;12.00;99.90;;;;;;5011982;28;20455;-75
2022/10/06 04:31:20;;;;;;;17.27;7.75;;;12.00;99.90;;;;;;5013607;28;20145;-76
2022/10/06 04:33:51;;;;;;;14.07;7.68;;;12.00;99.90;;;;;;5021406;28;20068;-75
2022/10/06 04:36:23;;;;;;;16.08;8.52;;;12.10;99.90;;;;;;5014154;28;20140;-77
2022/10/06 04:38:55;;;;;;;15.40;9.00;;;12.00;99.90;;;;;;5048333;28;20076;-77
2022/10/06 04:41:27;;;;;;;16.55;9.02;;;12.00;99.90;;;;;;5029779;28;20053;-75
2022/10/06 04:43:55;;;;;;;16.42;8.63;;;12.10;99.90;;;;;;5023114;28;20505;-77
2022/10/06 04:46:24;;;;;;;19.92;9.73;;;12.10;99.90;;;;;;5027897;28;20056;-72
2022/10/06 04:48:54;;;;;;;19.83;9.77;;;12.10;99.90;;;;;;5029084;28;20049;-72
2022/10/06 04:51:27;;;;;;;16.15;8.55;;;12.20;99.90;;;;;;5026916;28;20316;-72
2022/10/06 04:53:57;;;;;;;16.77;8.07;;;12.20;99.90;;;;;;5017439;28;20046;-74
2022/10/06 04:56:28;;;;;;;16.55;9.65;;;12.20;99.90;;;;;;5019516;28;20057;-72
2022/10/06 04:58:58;;;;;;;14.90;9.82;;;12.30;99.90;;;;;;5029118;28;20067;-72
2022/10/06 05:01:28;;;;;;;15.25;9.88;;;12.30;99.90;;;;;;5036137;28;20053;-72
2022/10/06 05:03:57;;;;;;;14.15;8.60;;;12.30;99.90;;;;;;5026645;28;20057;-71
2022/10/06 05:06:30;;;;;;;14.05;9.57;;;12.40;99.90;;;;;;5027910;28;20053;-71
2022/10/06 05:09:00;;;;;;;13.93;9.13;;;12.40;99.90;;;;;;5028155;28;20046;-73
2022/10/06 05:11:30;;;;;;;15.43;8.95;;;12.40;99.90;;;;;;5017957;28;20565;-73
2022/10/06 05:13:58;;;;;;;13.57;8.80;;;12.50;99.90;;;;;;5045134;28;20458;-73
2022/10/06 05:16:30;;;;;;;13.30;9.70;;;12.60;99.90;;;;;;5029578;28;20144;-73
2022/10/06 05:19:00;;;;;;;12.70;8.30;;;12.60;99.90;;;;;;5018851;28;20614;-73
2022/10/06 05:21:31;;;;;;;13.95;8.95;;;12.70;99.90;;;;;;5005505;28;20152;-73
2022/10/06 05:23:59;;;;;;;15.93;9.70;;;12.70;99.90;;;;;;5024242;28;20535;-73
2022/10/06 05:26:30;;;;;;;13.50;9.02;;;12.80;99.90;;;;;;5023953;28;20049;-73
2022/10/06 05:28:59;;;;;;;13.43;8.80;;;12.80;99.90;;;;;;5008072;28;20045;-73
2022/10/06 05:31:30;;;;;;;11.38;8.23;;;12.90;99.90;;;;;;5008424;28;20049;-74
2022/10/06 05:33:59;;;;;;;17.25;8.43;;;12.90;99.90;;;;;;5009576;28;20447;-73
2022/10/06 05:36:32;;;;;;;12.10;7.95;;;12.90;99.90;;;;;;5033408;28;20428;-73
2022/10/06 05:39:01;;;;;;;14.10;7.93;;;13.00;99.90;;;;;;5028220;28;20073;-73
2022/10/06 05:41:36;;;;;;;12.32;8.85;;;13.00;99.90;;;;;;5028758;28;20056;-73
2022/10/06 05:44:05;;;;;;;14.00;9.32;;;13.00;99.90;;;;;;5027789;28;20577;-72
2022/10/06 05:46:35;;;;;;;9.52;8.52;;;13.00;99.90;;;;;;5021637;28;20283;-72
2022/10/06 05:49:05;;;;;;;13.70;10.05;;;13.00;99.90;;;;;;5005233;28;20073;-72
2022/10/06 05:51:36;;;;;;;14.55;9.00;;;13.10;99.90;;;;;;5026780;28;20512;-72
2022/10/06 05:54:13;;;;;;;9.73;8.80;;;13.10;99.90;;;;;;5025228;28;20060;-72
2022/10/06 05:56:41;;;;;;;11.27;8.88;;;13.10;99.90;;;;;;5029240;28;20076;-72
2022/10/06 05:59:08;;;;;;;13.07;9.10;;;13.10;99.90;;;;;;5031226;28;20069;-73
2022/10/06 06:01:38;;;;;;;9.27;8.07;;;13.10;99.90;;;;;;5029144;28;20103;-73
2022/10/06 06:04:13;;;;;;;11.27;8.27;;;13.20;99.90;;;;;;5027144;28;20529;-74
2022/10/06 06:06:48;;;;;;;12.07;9.02;;;13.20;99.90;;;;;;5026537;28;20516;-73
2022/10/06 06:09:27;;;;;;;10.85;8.32;;;13.20;99.90;;;;;;5027090;28;20077;-74
2022/10/06 06:11:58;;;;;;;14.02;9.18;;;13.20;99.90;;;;;;5027543;28;20052;-72
2022/10/06 06:17:49;;;;;;;11.05;8.30;;;13.30;99.90;;;;;;5005934;28;20048;-74
2022/10/06 06:20:17;;;;;;;12.27;8.00;;;13.30;99.90;;;;;;5029283;28;20049;-74
2022/10/06 06:22:45;;;;;;;10.32;8.80;;;13.30;99.90;;;;;;5027789;28;20099;-74
2022/10/06 06:25:13;;;;;;;9.68;8.68;;;13.30;99.90;;;;;;5024315;28;20048;-72
2022/10/06 06:27:43;;;;;;;13.88;9.63;;;13.30;99.90;;;;;;5012627;28;20068;-74
2022/10/06 06:30:12;;;;;;;11.07;8.88;;;13.40;99.90;;;;;;5010627;28;20133;-75
2022/10/06 06:32:40;;;;;;;11.35;8.35;;;13.40;99.90;;;;;;5045700;28;20045;-75
2022/10/06 06:35:10;;;;;;;10.80;8.45;;;13.40;99.90;;;;;;5027458;28;20050;-74
2022/10/06 06:37:38;;;;;;;12.73;10.02;;;13.40;99.90;;;;;;5026790;28;20250;-75
2022/10/06 06:40:09;;;;;;;11.65;8.73;;;13.40;99.90;;;;;;5025520;28;20044;-79
2022/10/06 06:42:38;;;;;;;13.23;9.30;;;13.50;99.90;;;;;;5027877;28;20053;-80
2022/10/06 06:45:24;;;;;;;11.57;8.18;;;13.50;99.90;;;;;;5028859;28;20053;-77
2022/10/06 06:48:06;;;;;;;14.18;9.27;;;13.50;99.90;;;;;;5028127;28;20046;-78
2022/10/06 06:50:35;;;;;;;16.33;10.25;;;13.60;99.90;;;;;;5024469;28;20064;-78
2022/10/06 06:53:04;;;;;;;9.18;8.15;;;13.60;99.90;;;;;;5024977;28;20403;-78
2022/10/06 06:55:37;;;;;;;15.30;9.52;;;13.60;99.90;;;;;;5025823;28;20056;-78
2022/10/06 06:58:06;;;;;;;11.02;9.15;;;13.60;99.90;;;;;;5021089;28;20049;-78
2022/10/06 07:00:33;;;;;;;9.40;8.45;;;13.60;99.90;;;;;;5007967;28;20049;-78
2022/10/06 07:03:00;;;;;;;12.55;9.57;;;13.60;99.90;;;;;;5027494;28;20698;-77
2022/10/06 07:05:31;;;;;;;12.02;9.68;;;13.60;99.90;;;;;;5016435;28;20034;-78
2022/10/06 07:07:59;;;;;;;10.77;8.35;;;13.70;99.90;;;;;;5028309;28;20418;-73
2022/10/06 07:10:27;;;;;;;12.98;8.60;;;13.70;99.90;;;;;;5028019;28;20491;-75
2022/10/06 07:12:56;;;;;;;15.40;8.93;;;13.70;99.90;;;;;;5028494;28;20539;-73
2022/10/06 07:26:37;;;;;;;17.25;9.38;;;13.70;99.90;;;;;;5020591;28;20068;-73
2022/10/06 07:29:06;;;;;;;14.73;9.27;;;13.70;99.90;;;;;;5027707;28;20050;-74
2022/10/06 07:31:36;;;;;;;13.45;9.15;;;13.60;99.90;;;;;;5028408;28;20147;-72
2022/10/06 07:34:05;;;;;;;13.02;9.93;;;13.60;99.90;;;;;;5030753;28;20041;-73
2022/10/06 07:36:32;;;;;;;13.82;9.63;;;13.60;99.90;;;;;;5031634;28;20100;-72
2022/10/06 07:39:00;;;;;;;11.18;8.45;;;13.60;99.90;;;;;;5030275;28;20045;-75
2022/10/06 07:41:30;;;;;;;13.00;8.38;;;13.70;99.90;;;;;;5030338;28;20057;-74
2022/10/06 07:44:04;;;;;;;11.23;8.05;;;13.80;99.90;;;;;;5023969;28;20045;-74
2022/10/06 07:46:34;;;;;;;10.57;8.10;;;13.80;99.90;;;;;;5030301;28;20055;-74
2022/10/06 07:49:09;;;;;;;10.20;7.38;;;13.80;99.90;;;;;;4978209;28;20092;-74
2022/10/06 07:51:36;;;;;;;12.60;8.35;;;13.80;99.90;;;;;;5036077;28;20513;-73
2022/10/06 07:54:04;;;;;;;13.05;8.07;;;13.80;99.90;;;;;;5031711;28;20540;-74
2022/10/06 07:56:56;;;;;;;10.38;7.32;;;13.80;99.90;;;;;;5031009;28;20144;-72
2022/10/06 07:59:23;;;;;;;11.43;6.95;;;13.70;99.90;;;;;;5015806;28;20062;-74
2022/10/06 08:01:53;;;;;;;6.78;5.93;;;13.70;99.90;;;;;;5031864;28;20049;-72
2022/10/06 08:04:20;;;;;;;6.82;6.13;;;13.80;99.90;;;;;;5032845;28;20099;-74
2022/10/06 08:06:48;;;;;;;9.77;6.82;;;13.80;99.90;;;;;;5032261;28;20048;-73
2022/10/06 08:09:15;;;;;;;7.28;6.05;;;13.90;99.90;;;;;;5032197;28;20053;-73
2022/10/06 08:11:43;;;;;;;8.98;6.05;;;13.90;99.90;;;;;;5013323;28;20092;-73
2022/10/06 08:14:13;;;;;;;9.45;6.25;;;13.90;99.90;;;;;;5027207;28;20456;-74
2022/10/06 08:16:41;;;;;;;8.35;5.80;;;13.90;99.90;;;;;;5032802;28;20053;-73
2022/10/06 08:19:10;;;;;;;6.78;5.57;;;13.90;99.90;;;;;;5032851;28;20046;-73
2022/10/06 08:21:38;;;;;;;9.27;5.50;;;13.90;99.90;;;;;;5031535;28;20053;-74
2022/10/06 08:24:06;;;;;;;10.13;6.15;;;13.90;99.90;;;;;;5032749;28;20052;-74
2022/10/06 08:26:34;;;;;;;7.32;5.70;;;13.90;99.90;;;;;;5032316;28;20148;-73
2022/10/06 08:29:03;;;;;;;5.68;4.95;;;13.90;99.90;;;;;;5027792;28;20131;-74
2022/10/06 08:31:31;;;;;;;6.57;5.55;;;13.90;99.90;;;;;;5027404;28;20046;-74
2022/10/06 08:34:00;;;;;;;8.35;6.47;;;13.90;99.90;;;;;;5031489;28;20045;-74
2022/10/06 08:36:29;;;;;;;7.55;5.40;;;13.90;99.90;;;;;;5031178;28;20513;-74
2022/10/06 08:38:56;;;;;;;6.10;5.60;;;13.90;99.90;;;;;;5029295;28;20045;-73
2022/10/06 08:41:28;;;;;;;9.38;5.85;;;13.90;99.90;;;;;;5030124;28;20044;-74
2022/10/06 08:44:03;;;;;;;8.52;6.30;;;13.90;99.90;;;;;;5029989;28;20092;-73
2022/10/06 08:46:38;;;;;;;5.78;5.18;;;13.90;99.90;;;;;;5032838;28;20084;-73
2022/10/06 08:49:07;;;;;;;6.05;5.40;;;13.90;99.90;;;;;;5030728;28;20516;-73
2022/10/06 08:51:53;;;;;;;5.88;5.20;;;13.90;99.90;;;;;;5032225;28;20136;-73
2022/10/06 08:54:29;;;;;;;5.78;5.28;;;13.90;99.90;;;;;;5031959;28;20072;-72
2022/10/06 08:57:05;;;;;;;9.23;5.95;;;13.90;99.90;;;;;;5025894;28;20069;-73
2022/10/06 08:59:34;;;;;;;8.20;5.68;;;13.90;99.90;;;;;;5031010;28;20521;-72
2022/10/06 09:02:06;;;;;;;6.13;5.50;;;13.80;99.90;;;;;;5044022;28;20054;-72
2022/10/06 09:04:34;;;;;;;8.50;5.55;;;13.90;99.90;;;;;;5030683;28;20054;-72
2022/10/06 09:07:10;;;;;;;6.80;6.13;;;13.90;99.90;;;;;;5030592;28;20533;-76
2022/10/06 09:09:57;;;;;;;7.25;5.68;;;14.00;99.90;;;;;;5031261;28;20469;-76
2022/10/06 09:12:36;;;;;;;7.22;5.82;;;13.90;99.90;;;;;;5046569;28;20049;-72
2022/10/06 09:15:23;;;;;;;7.13;5.35;;;13.90;99.90;;;;;;5030035;28;20045;-72
2022/10/06 09:17:56;;;;;;;7.85;6.32;;;14.00;99.90;;;;;;5024911;28;20128;-72
2022/10/06 09:20:33;;;;;;;6.80;6.20;;;14.00;99.90;;;;;;5032020;28;20088;-74
2022/10/06 09:23:04;;;;;;;7.95;6.13;;;14.00;99.90;;;;;;5031782;28;20103;-73
2022/10/06 09:25:31;;;;;;;10.25;6.63;;;14.00;99.90;;;;;;5029602;28;20053;-72
2022/10/06 09:28:02;;;;;;;7.28;5.43;;;14.00;99.90;;;;;;5031283;28;20049;-72
2022/10/06 09:30:29;;;;;;;7.32;6.40;;;14.10;99.90;;;;;;5032218;28;20049;-73
2022/10/06 09:33:00;;;;;;;8.00;5.75;;;14.10;99.90;;;;;;5028982;28;20207;-72
2022/10/06 09:35:31;;;;;;;9.05;6.40;;;14.00;99.90;;;;;;5032137;28;20057;-79
2022/10/06 09:38:03;;;;;;;7.13;6.22;;;14.00;99.90;;;;;;5026190;28;20049;-79
2022/10/06 09:40:40;;;;;;;9.20;6.53;;;13.90;99.90;;;;;;5030565;28;20049;-78
2022/10/06 09:43:22;;;;;;;9.07;6.13;;;13.90;99.90;;;;;;5027319;28;20099;-77
2022/10/06 09:45:50;;;;;;;8.88;7.38;;;13.90;99.90;;;;;;5013359;28;20403;-79
2022/10/06 09:48:23;;;;;;;8.48;6.72;;;13.80;99.90;;;;;;5029949;28;20045;-77
2022/10/06 09:51:14;;;;;;;8.20;7.35;;;13.80;99.90;;;;;;5028006;28;20039;-79
2022/10/06 09:53:44;;;;;;;8.52;7.35;;;13.80;99.90;;;;;;5032052;28;20052;-77
2022/10/06 09:56:17;;;;;;;9.55;7.95;;;13.70;99.90;;;;;;5028804;28;20050;-77
2022/10/06 09:58:56;;;;;;;;;;;13.70;99.90;;;;;;5030041;28;20053;-77
2022/10/06 10:01:26;;;;;;;13.43;7.13;;;13.70;99.90;;;;;;5028504;28;19925;-77
2022/10/06 10:03:59;;;;;;;13.80;7.65;;;13.70;99.90;;;;;;5031598;28;20049;-79
2022/10/06 10:06:28;;;;;;;;;;;13.80;99.90;;;;;;5019448;28;20520;-77
2022/10/06 10:09:24;;;;;;;9.13;7.53;;;13.80;99.90;;;;;;5028633;28;20012;-78
2022/10/06 10:12:30;;;;;;;11.55;7.40;;;13.80;99.90;;;;;;5029468;28;20049;-77
2022/10/06 10:15:03;;;;;;;9.73;6.90;;;13.80;99.90;;;;;;5011001;28;20112;-79
2022/10/06 10:17:39;;;;;;;7.80;6.85;;;13.80;99.90;;;;;;5012857;28;20049;-78
2022/10/06 10:20:32;;;;;;;10.10;7.97;;;13.80;99.90;;;;;;5028059;28;20413;-77
2022/10/06 10:23:06;;;;;;;8.60;7.75;;;13.80;99.90;;;;;;5030440;28;20041;-77
2022/10/06 10:26:06;;;;;;;10.73;8.02;;;13.80;99.90;;;;;;5030206;28;20045;-77
2022/10/06 10:29:06;;;;;;;11.10;7.88;;;13.80;99.90;;;;;;5029042;28;20500;-78
2022/10/06 10:31:48;;;;;;;11.18;8.32;;;13.70;99.90;;;;;;5020736;28;20583;-76
2022/10/06 10:34:41;;;;;;;16.90;7.70;;;13.70;99.90;;;;;;5028156;28;20099;-77
2022/10/06 10:37:14;;;;;;;8.85;7.50;;;13.70;99.90;;;;;;5027719;28;20154;-77
2022/10/06 10:39:48;;;;;;;12.38;7.82;;;13.70;99.90;;;;;;5030713;28;20057;-76
2022/10/06 10:42:24;;;;;;;10.38;8.70;;;13.70;99.90;;;;;;5030574;28;20509;-76
2022/10/06 10:44:57;;;;;;;13.25;9.75;;;13.70;99.90;;;;;;5027849;28;20426;-76
2022/10/06 10:47:30;;;;;;;14.13;10.20;;;13.80;99.90;;;;;;5030232;28;20547;-72
2022/10/06 10:50:05;;;;;;;12.38;10.10;;;13.80;99.90;;;;;;5030321;28;20509;-73
2022/10/06 10:52:40;;;;;;;16.95;9.82;;;13.80;99.90;;;;;;5030324;28;20079;-72
2022/10/06 10:55:25;;;;;;;10.48;8.25;;;13.90;99.90;;;;;;5008647;28;20137;-72
2022/10/06 10:57:59;;;;;;;10.43;8.35;;;14.00;99.90;;;;;;5017570;28;20061;-77
2022/10/06 11:00:32;;;;;;;10.90;8.70;;;14.00;99.90;;;;;;5026582;28;20142;-77
2022/10/06 11:03:01;;;;;;;;;;;14.00;99.90;;;;;;5027345;28;20042;-78
2022/10/06 11:05:55;;;;;;;12.60;9.18;;;14.10;99.90;;;;;;5029897;28;19972;-79
2022/10/06 11:08:32;;;;;;;10.85;8.82;;;14.20;99.90;;;;;;5033972;28;20041;-79
2022/10/06 11:11:04;;;;;;;13.27;8.63;;;14.30;99.90;;;;;;5027346;28;20045;-78
2022/10/06 11:13:41;;;;;;;12.07;8.27;;;14.40;99.90;;;;;;5034698;28;20115;-78
2022/10/06 11:16:28;;;;;;;12.90;8.18;;;14.40;99.90;;;;;;5049930;28;20142;-78
2022/10/06 11:19:13;;;;;;;9.68;8.27;;;14.40;99.90;;;;;;5035071;28;20060;-78
2022/10/06 11:21:49;;;;;;;13.07;8.25;;;14.40;99.90;;;;;;5033803;28;20144;-78
2022/10/06 11:24:28;;;;;;;10.98;7.90;;;14.50;99.90;;;;;;5034830;28;20056;-77
2022/10/06 11:27:16;;;;;;;10.05;7.00;;;14.60;99.90;;;;;;5034530;28;20424;-77
2022/10/06 11:30:01;;;;;;;9.43;7.75;;;14.60;99.90;;;;;;5043138;28;20108;-77
2022/10/06 11:32:44;;;;;;;12.55;8.15;;;14.60;99.90;;;;;;5016108;28;20531;-78
2022/10/06 11:35:19;;;;;;;8.40;7.32;;;14.70;99.90;;;;;;5035974;28;20061;-73
2022/10/06 11:37:53;;;;;;;8.95;7.93;;;14.70;99.90;;;;;;5035344;28;20056;-72
2022/10/06 11:40:50;;;;;;;10.02;7.43;;;14.70;99.90;;;;;;5035621;28;20097;-73
2022/10/06 11:43:31;;;;;;;11.38;8.65;;;14.60;99.90;;;;;;5033652;28;20081;-72
2022/10/06 11:46:14;;;;;;;16.67;8.00;;;14.60;99.90;;;;;;5029342;28;20431;-78
2022/10/06 11:48:41;;;;;;;9.95;7.55;;;14.60;99.90;;;;;;5028610;28;20555;-77
2022/10/06 11:51:28;;;;;;;13.57;7.30;;;14.60;99.90;;;;;;5031419;28;20053;-73
2022/10/06 11:53:55;;;;;;;11.10;7.82;;;14.70;99.90;;;;;;5034086;28;20053;-78
2022/10/06 11:56:36;;;;;;;13.77;7.85;;;14.70;99.90;;;;;;5033580;28;20051;-77
2022/10/06 11:59:25;;;;;;;11.40;6.97;;;14.70;99.90;;;;;;5032949;28;20131;-76
2022/10/06 12:02:01;;;;;;;9.65;7.43;;;14.80;99.90;;;;;;5046797;28;20046;-76
2022/10/06 12:04:29;;;;;;;10.38;7.03;;;14.80;99.90;;;;;;5032779;28;20417;-79
2022/10/06 12:07:09;;;;;;;12.38;8.25;;;14.70;99.90;;;;;;5024880;28;20041;-78
2022/10/06 12:09:46;;;;;;;8.50;7.63;;;14.60;99.90;;;;;;5032539;28;20068;-77
2022/10/06 12:12:54;;;;;;;8.48;7.20;;;14.70;99.90;;;;;;5030775;28;20497;-77
2022/10/06 12:16:11;;;;;;;9.63;7.05;;;14.60;99.90;;;;;;5033348;28;20637;-77
2022/10/06 12:18:50;;;;;;;8.20;6.78;;;14.60;99.90;;;;;;5015272;28;20111;-77
2022/10/06 12:21:49;;;;;;;10.93;8.30;;;14.60;99.90;;;;;;5025636;28;20604;-77
2022/10/06 12:24:33;;;;;;;9.98;7.72;;;14.50;99.90;;;;;;5031498;28;20108;-75
2022/10/06 12:27:41;;;;;;;12.25;7.60;;;14.50;99.90;;;;;;5024666;28;20082;-78
2022/10/06 12:30:23;;;;;;;12.82;6.63;;;14.40;99.90;;;;;;5039379;28;20053;-77
2022/10/06 12:32:54;;;;;;;14.13;8.00;;;14.40;99.90;;;;;;5045798;28;20048;-77
2022/10/06 12:35:35;;;;;;;10.55;6.97;;;14.40;99.90;;;;;;5028042;28;20053;-77
2022/10/06 12:38:09;;;;;;;11.02;7.68;;;14.40;99.90;;;;;;5024536;28;20140;-77
2022/10/06 12:40:54;;;;;;;10.60;7.88;;;14.30;99.90;;;;;;5030403;28;20049;-72
2022/10/06 12:43:53;;;;;;;7.93;7.13;;;14.30;99.90;;;;;;5013960;28;20148;-77
2022/10/06 12:46:29;;;;;;;11.70;7.45;;;14.30;99.90;;;;;;5025198;28;20140;-77
2022/10/06 12:49:15;;;;;;;10.90;7.38;;;14.40;99.90;;;;;;5023323;28;20103;-73
2022/10/06 12:51:47;;;;;;;11.18;7.20;;;14.30;99.90;;;;;;5030427;28;20112;-72
2022/10/06 12:54:21;;;;;;;10.65;7.80;;;14.30;99.90;;;;;;5030326;28;20061;-70
2022/10/06 12:56:58;;;;;;;10.23;7.75;;;14.30;99.90;;;;;;5031398;28;20071;-72
2022/10/06 12:59:30;;;;;;;9.73;7.13;;;14.30;99.90;;;;;;5029477;28;20072;-76
2022/10/06 13:02:01;;;;;;;14.07;8.37;;;14.30;99.90;;;;;;5041917;28;20077;-75
2022/10/06 13:04:37;;;;;;;8.93;8.02;;;14.10;99.90;;;;;;5021484;28;20366;-76
2022/10/06 13:07:15;;;;;;;10.07;7.65;;;14.10;99.90;;;;;;5025588;28;20054;-75
2022/10/06 13:09:43;;;;;;;11.98;7.68;;;14.00;99.90;;;;;;5024022;28;20057;-77
2022/10/06 13:12:32;;;;;;;10.20;7.78;;;13.90;99.90;;;;;;5028525;28;20091;-76
2022/10/06 13:15:22;;;;;;;14.07;7.50;;;13.80;99.90;;;;;;5029710;28;20508;-76
2022/10/06 13:17:53;;;;;;;10.52;7.47;;;13.80;99.90;;;;;;5014993;28;20468;-76
2022/10/06 13:20:36;;;;;;;9.27;7.00;;;13.80;99.90;;;;;;5028788;28;20053;-76
2022/10/06 13:23:21;;;;;;;;;;;13.80;99.90;;;;;;5028858;28;20049;-75
2022/10/06 13:25:54;;;;;;;9.18;6.90;;;13.80;99.90;;;;;;5028596;28;20297;-72
2022/10/06 13:28:26;;;;;;;8.60;6.43;;;13.80;99.90;;;;;;5021394;28;20045;-72